createdAt,value
2019-02-08T00:04:41.192Z,23.53
2019-02-08T00:09:37.863Z,24.27
2019-02-08T00:14:33.821Z,25.07
2019-02-08T00:19:29.561Z,24.50
2019-02-08T00:24:25.407Z,24.43
2019-02-08T00:29:20.642Z,24.93
2019-02-08T00:34:15.480Z,25.33
2019-02-08T00:39:11.853Z,24.60
2019-02-08T00:44:07.287Z,24.50
2019-02-08T00:49:04.970Z,22.77
2019-02-08T00:54:00.854Z,25.10
2019-02-08T00:58:55.708Z,24.33
2019-02-08T01:03:52.394Z,24.53
2019-02-08T01:08:47.707Z,26.67
2019-02-08T01:13:41.908Z,24.47
2019-02-08T01:18:37.716Z,25.33
2019-02-08T01:23:40.853Z,24.23
2019-02-08T01:28:30.377Z,24.87
2019-02-08T01:33:27.404Z,24.70
2019-02-08T01:38:24.065Z,24.57
2019-02-08T01:43:18.697Z,25.73
2019-02-08T01:48:12.947Z,25.07
2019-02-08T01:53:09.365Z,25.50
2019-02-08T01:58:04.701Z,24.83
2019-02-08T02:02:59.146Z,23.83
2019-02-08T02:07:53.899Z,25.47
2019-02-08T02:12:51.737Z,25.03
2019-02-08T02:17:46.731Z,25.17
2019-02-08T02:22:43.149Z,25.73
2019-02-08T02:27:37.498Z,25.53
2019-02-08T02:32:32.719Z,26.03
2019-02-08T02:37:29.526Z,25.50
2019-02-08T02:42:24.335Z,26.63
2019-02-08T02:47:19.541Z,26.90
2019-02-08T02:52:13.908Z,25.57
2019-02-08T02:57:10.386Z,27.77
2019-02-08T03:02:06.528Z,27.67
2019-02-08T03:07:06.347Z,28.10
2019-02-08T03:12:01.740Z,28.03
2019-02-08T03:16:56.600Z,26.47
2019-02-08T03:21:50.647Z,27.40
2019-02-08T03:26:45.826Z,25.73
2019-02-08T03:31:41.938Z,26.87
2019-02-08T03:36:37.501Z,27.53
2019-02-08T03:41:33.476Z,28.07
2019-02-08T03:46:28.406Z,26.43
2019-02-08T03:51:23.092Z,26.67
2019-02-08T03:56:17.814Z,24.40
2019-02-08T04:01:13.703Z,24.83
2019-02-08T04:06:15.418Z,25.87
2019-02-08T04:11:09.847Z,25.87
2019-02-08T04:16:07.200Z,25.73
2019-02-08T04:21:02.412Z,23.83
2019-02-08T04:25:58.501Z,25.80
2019-02-08T04:30:54.402Z,24.37
2019-02-08T04:35:49.126Z,24.27
2019-02-08T04:40:43.398Z,25.37
2019-02-08T04:45:39.646Z,22.43
2019-02-08T04:50:33.844Z,22.67
2019-02-08T04:55:29.270Z,23.80
2019-02-08T05:00:28.945Z,22.73
2019-02-08T05:05:23.908Z,24.27
2019-02-08T05:10:30.232Z,22.43
2019-02-08T05:15:27.235Z,20.67
2019-02-08T05:20:30.769Z,20.87
2019-02-08T05:25:25.699Z,21.33
2019-02-08T05:30:25.951Z,23.80
2019-02-08T05:35:20.957Z,22.83
2019-02-08T05:40:17.737Z,29.90
2019-02-08T05:45:18.033Z,22.23
2019-02-08T05:50:24.645Z,29.33
2019-02-08T05:55:29.133Z,20.30
2019-02-08T06:00:27.495Z,19.23
2019-02-08T06:05:22.596Z,19.03
2019-02-08T06:10:17.276Z,19.50
2019-02-08T06:15:21.250Z,18.73
2019-02-08T06:20:22.873Z,21.07
2019-02-08T06:25:20.010Z,22.40
2019-02-08T06:30:17.587Z,21.50
2019-02-08T06:35:15.798Z,22.10
2019-02-08T06:40:21.394Z,21.20
2019-02-08T06:45:18.943Z,22.70
2019-02-08T06:50:16.366Z,22.80
2019-02-08T06:55:12.791Z,23.60
2019-02-08T07:00:24.123Z,28.10
2019-02-08T07:05:21.477Z,23.57
2019-02-08T07:10:34.120Z,32.37
2019-02-08T07:15:50.176Z,20.60
2019-02-08T07:21:02.690Z,20.33
2019-02-08T07:26:10.108Z,20.23
2019-02-08T07:31:35.158Z,18.00
2019-02-08T07:36:32.374Z,17.27
2019-02-08T07:41:39.738Z,16.10
2019-02-08T07:46:37.388Z,19.07
2019-02-08T07:51:33.428Z,18.70
2019-02-08T07:56:33.084Z,16.43
2019-02-08T08:01:35.975Z,17.20
2019-02-08T08:06:34.664Z,16.40
2019-02-08T08:11:32.616Z,13.00
2019-02-08T08:16:30.344Z,14.33
2019-02-08T08:21:33.862Z,15.53
2019-02-08T08:26:31.009Z,13.53
2019-02-08T08:31:32.889Z,14.70
2019-02-08T08:36:34.620Z,12.67
2019-02-08T08:42:06.924Z,10.70
2019-02-08T08:47:43.370Z,9.97
2019-02-08T08:53:06.067Z,11.60
2019-02-08T08:58:38.947Z,11.27
2019-02-08T09:04:08.401Z,11.67
2019-02-08T09:14:31.116Z,11.53
2019-02-08T09:19:46.809Z,10.53
2019-02-08T09:24:59.864Z,9.93
2019-02-08T09:30:24.434Z,10.47
2019-02-08T09:35:41.474Z,11.00
2019-02-08T09:41:11.454Z,10.63
2019-02-08T09:46:29.162Z,10.87
2019-02-08T09:51:49.409Z,8.87
2019-02-08T09:57:16.536Z,10.80
2019-02-08T10:02:42.192Z,10.00
2019-02-08T10:08:13.891Z,10.40
2019-02-08T10:13:47.946Z,8.90
2019-02-08T10:19:12.975Z,9.67
2019-02-08T10:24:14.134Z,7.90
2019-02-08T10:29:38.842Z,10.10
2019-02-08T10:34:55.349Z,10.57
2019-02-08T10:40:21.530Z,8.67
2019-02-08T10:45:19.486Z,9.53
2019-02-08T10:50:29.690Z,8.57
2019-02-08T10:55:47.581Z,7.20
2019-02-08T11:00:48.796Z,6.67
2019-02-08T11:06:11.101Z,4.87
2019-02-08T11:11:36.781Z,6.20
2019-02-08T11:17:09.859Z,2.97
2019-02-08T11:22:07.174Z,2.80
2019-02-08T11:27:09.107Z,2.93
2019-02-08T11:32:04.692Z,3.33
2019-02-08T11:36:59.469Z,2.70
2019-02-08T11:41:54.700Z,2.33
2019-02-08T11:46:49.160Z,2.83
2019-02-08T11:51:44.751Z,2.67
2019-02-08T11:56:40.775Z,2.20
2019-02-08T12:01:39.763Z,2.60
2019-02-08T12:06:40.200Z,2.23
2019-02-08T12:11:35.898Z,2.63
2019-02-08T12:16:35.871Z,2.33
2019-02-08T12:21:31.760Z,2.07
2019-02-08T12:26:26.703Z,2.57
2019-02-08T12:31:21.096Z,2.27
2019-02-08T12:36:17.057Z,1.77
2019-02-08T12:41:12.984Z,1.93
2019-02-08T12:46:10.136Z,1.40
2019-02-08T12:51:08.132Z,1.80
2019-02-08T12:56:05.212Z,2.20
2019-02-08T13:01:00.542Z,2.07
2019-02-08T13:05:55.016Z,9.37
2019-02-08T13:10:50.364Z,9.50
2019-02-08T13:15:46.706Z,10.60
2019-02-08T13:20:40.884Z,10.33
2019-02-08T13:25:37.466Z,11.07
2019-02-08T13:30:38.931Z,10.27
2019-02-08T13:35:35.763Z,8.60
2019-02-08T13:40:32.220Z,8.93
2019-02-08T13:45:27.075Z,9.00
2019-02-08T13:50:24.165Z,9.70
2019-02-08T13:55:22.288Z,19.10
2019-02-08T14:00:42.378Z,10.87
2019-02-08T14:05:38.968Z,11.90
2019-02-08T14:10:33.554Z,11.63
2019-02-08T14:15:28.592Z,9.43
2019-02-08T14:20:26.096Z,10.40
2019-02-08T14:25:21.617Z,10.83
2019-02-08T14:30:22.324Z,11.93
2019-02-08T14:35:17.359Z,12.13
2019-02-08T14:40:23.701Z,12.57
2019-02-08T14:45:21.362Z,13.57
2019-02-08T14:50:22.142Z,15.03
2019-02-08T14:55:18.177Z,18.20
2019-02-08T15:00:15.655Z,14.63
2019-02-08T15:05:15.447Z,15.33
2019-02-08T15:10:21.560Z,14.40
2019-02-08T15:15:16.063Z,13.97
2019-02-08T15:20:17.903Z,14.17
2019-02-08T15:25:12.950Z,14.10
2019-02-08T15:30:11.571Z,14.27
2019-02-08T15:35:09.614Z,14.77
2019-02-08T15:40:06.711Z,15.67
2019-02-08T15:45:05.139Z,15.00
2019-02-08T15:50:00.538Z,14.60
2019-02-08T15:54:55.445Z,15.13
2019-02-08T15:59:51.422Z,13.00
2019-02-08T16:04:46.887Z,13.80
2019-02-08T16:09:46.214Z,26.73
2019-02-08T16:14:41.303Z,15.03
2019-02-08T16:19:35.985Z,12.43
2019-02-08T16:24:36.543Z,12.73
2019-02-08T16:29:32.145Z,12.77
2019-02-08T16:34:27.661Z,13.27
2019-02-08T16:39:23.869Z,13.90
2019-02-08T16:44:19.603Z,15.50
2019-02-08T16:49:14.246Z,16.60
2019-02-08T16:54:25.169Z,16.37
2019-02-08T16:59:22.714Z,17.43
2019-02-08T17:04:18.762Z,19.37
2019-02-08T17:09:23.549Z,17.83
2019-02-08T17:14:21.501Z,21.73
2019-02-08T17:19:24.727Z,79.03
2019-02-08T17:24:19.715Z,26.30
2019-02-08T17:29:15.094Z,19.53
2019-02-08T17:34:10.051Z,19.73
2019-02-08T17:39:08.644Z,20.13
2019-02-08T17:44:11.340Z,20.27
2019-02-08T17:49:27.268Z,22.33
2019-02-08T17:54:25.905Z,22.43
2019-02-08T18:04:14.652Z,23.57
2019-02-08T18:09:09.889Z,22.27
2019-02-08T18:14:04.530Z,23.83
2019-02-08T18:19:00.589Z,20.27
2019-02-08T18:23:55.652Z,19.40
2019-02-08T18:28:51.887Z,19.43
2019-02-08T18:33:48.118Z,21.13
2019-02-08T18:38:43.348Z,19.13
2019-02-08T18:43:37.963Z,18.03
2019-02-08T18:48:34.188Z,19.20
2019-02-08T18:53:29.581Z,17.07
2019-02-08T18:58:23.541Z,18.27
2019-02-08T19:03:19.603Z,16.40
2019-02-08T19:08:16.644Z,17.70
2019-02-08T19:13:11.893Z,17.23
2019-02-08T19:18:06.734Z,14.37
2019-02-08T19:23:04.427Z,13.57
2019-02-08T19:27:58.514Z,12.90
2019-02-08T19:32:53.408Z,13.67
2019-02-08T19:37:48.188Z,12.50
2019-02-08T19:42:43.379Z,11.97
2019-02-08T19:47:38.884Z,12.87
2019-02-08T19:52:33.110Z,12.43
2019-02-08T19:57:28.479Z,12.00
2019-02-08T20:02:24.746Z,13.80
2019-02-08T20:07:19.821Z,12.57
2019-02-08T20:12:14.861Z,13.07
2019-02-08T20:17:13.689Z,12.33
2019-02-08T20:22:17.367Z,11.23
2019-02-08T20:27:12.137Z,11.87
2019-02-08T20:32:07.980Z,11.37
2019-02-08T20:37:05.549Z,11.80
2019-02-08T20:42:01.624Z,12.43
2019-02-08T20:46:56.502Z,10.73
2019-02-08T20:51:51.778Z,11.07
2019-02-08T20:56:46.124Z,11.13
2019-02-08T21:01:42.883Z,12.00
2019-02-08T21:06:38.952Z,10.60
2019-02-08T21:11:34.487Z,10.33
2019-02-08T21:16:30.541Z,11.20
2019-02-08T21:21:26.736Z,10.47
2019-02-08T21:26:22.601Z,11.63
2019-02-08T21:31:16.575Z,10.03
2019-02-08T21:36:13.801Z,10.13
2019-02-08T21:41:08.414Z,10.10
2019-02-08T21:46:06.123Z,8.57
2019-02-08T21:51:00.635Z,8.70
2019-02-08T21:55:56.526Z,8.93
2019-02-08T22:00:50.829Z,10.40
2019-02-08T22:05:54.249Z,7.70
2019-02-08T22:10:49.482Z,7.93
2019-02-08T22:15:45.901Z,8.13
2019-02-08T22:20:43.624Z,7.67
2019-02-08T22:25:40.633Z,8.00
2019-02-08T22:30:35.498Z,7.00
2019-02-08T22:35:30.001Z,7.70
2019-02-08T22:40:25.896Z,8.00
2019-02-08T22:45:24.559Z,6.43
2019-02-08T22:50:21.773Z,4.70
2019-02-08T22:55:23.812Z,4.03
2019-02-08T23:00:43.482Z,4.77
2019-02-08T23:05:45.377Z,4.03
2019-02-08T23:10:37.230Z,5.97
2019-02-08T23:15:34.490Z,5.07
2019-02-08T23:20:32.449Z,4.17
2019-02-08T23:25:26.683Z,5.03
2019-02-08T23:30:25.257Z,5.13
2019-02-08T23:35:19.934Z,4.47
2019-02-08T23:40:15.866Z,4.63
2019-02-08T23:45:18.099Z,4.33
2019-02-08T23:50:17.041Z,4.23
2019-02-08T23:55:14.319Z,4.10
